KMCJ

Houston

Houston, Texas, USA
METAR KMCJ 170755Z AUTO 34006KT 10SM OVC004 09/09 A3001 RMK A01
Observed Flight Rules
Dec-17 @ 07:55 UTC (22 minutes ago) Instrument Flight Rules
Wind Visibility Clouds
340° at 6 knots 10 miles
  • Overcast at 400' AGL
Temperatures Readings
Current 9°C / 48°F
Dewpoint 9°C / 48°F
Humidity 100%
Altimeter 30.01" Hg
Pressure 1016 hPa
Elevation 69
METAR KMCJ 170755Z AUTO 34006KT 10SM OVC004 09/09 A3001 RMK A01
Observed Flight Rules
Dec-17 @ 07:55 UTC
(22 minutes ago)
LIFR
Wind Visibility
340° at 6 knots 10 miles
Clouds
  • Overcast at 400' AGL
Temperature Dewpoint
9°C / 48°F 9°C / 48°F
Humidity Altimeter Pressure
100% 30.01" Hg 1016 hPa